createdAt,value
2022-12-16T00:02:14.225Z,97012.75
2022-12-16T00:04:40.451Z,97011.94
2022-12-16T00:07:06.647Z,96980.19
2022-12-16T00:09:32.863Z,97016.50
2022-12-16T00:11:59.081Z,97023.69
2022-12-16T00:14:25.435Z,97023.94
2022-12-16T00:16:51.736Z,97025.00
2022-12-16T00:19:18.030Z,97020.75
2022-12-16T00:21:44.348Z,97027.38
2022-12-16T00:24:10.569Z,97021.53
2022-12-16T00:26:36.766Z,97023.41
2022-12-16T00:29:03.039Z,97024.72
2022-12-16T00:31:29.413Z,97018.81
2022-12-16T00:33:57.585Z,97026.06
2022-12-16T00:36:23.791Z,97020.72
2022-12-16T00:38:50.151Z,97027.38
2022-12-16T00:41:16.357Z,97017.78
2022-12-16T00:43:42.567Z,97020.72
2022-12-16T00:46:09.097Z,97022.84
2022-12-16T00:48:35.413Z,97015.88
2022-12-16T00:51:03.725Z,97020.44
2022-12-16T00:53:30.093Z,97017.78
2022-12-16T00:55:56.551Z,97023.59
2022-12-16T00:58:22.817Z,97019.34
2022-12-16T01:00:49.081Z,97015.88
2022-12-16T01:03:21.106Z,97012.16
2022-12-16T01:05:47.920Z,97014.56
2022-12-16T01:08:16.108Z,97019.06
2022-12-16T01:10:42.454Z,97020.66
2022-12-16T01:13:08.726Z,97021.47
2022-12-16T01:15:35.954Z,97019.88
2022-12-16T01:18:02.151Z,97016.69
2022-12-16T01:20:28.386Z,97018.53
2022-12-16T01:22:54.704Z,97016.69
2022-12-16T01:25:21.112Z,97026.00
2022-12-16T01:27:47.289Z,97028.66
2022-12-16T01:30:13.511Z,97029.75
2022-12-16T01:32:39.797Z,97035.63
2022-12-16T01:35:18.131Z,97035.63
2022-12-16T01:37:52.155Z,97036.69
2022-12-16T01:40:21.023Z,97031.59
2022-12-16T01:42:47.226Z,97038.00
2022-12-16T01:45:14.611Z,97042.25
2022-12-16T01:47:40.914Z,97036.16
2022-12-16T01:50:07.093Z,97036.16
2022-12-16T01:52:33.428Z,97033.75
2022-12-16T01:54:59.669Z,97037.47
2022-12-16T01:57:28.030Z,97034.78
2022-12-16T01:59:54.278Z,97034.78
2022-12-16T02:02:20.574Z,97030.53
2022-12-16T02:04:46.876Z,97026.25
2022-12-16T02:07:13.075Z,97032.66
2022-12-16T02:09:39.472Z,97042.50
2022-12-16T02:12:05.690Z,97035.34
2022-12-16T02:14:34.065Z,97034.78
2022-12-16T02:17:00.303Z,97031.31
2022-12-16T02:19:26.574Z,97025.19
2022-12-16T02:21:52.729Z,97023.84
2022-12-16T02:24:21.101Z,97017.97
2022-12-16T02:26:47.285Z,97024.66
2022-12-16T02:29:16.508Z,97023.56
2022-12-16T02:31:42.719Z,97023.56
2022-12-16T02:34:08.939Z,97027.03
2022-12-16T02:36:35.128Z,97026.22
2022-12-16T02:39:01.315Z,97024.91
2022-12-16T02:41:27.534Z,97026.75
2022-12-16T02:43:53.782Z,97034.75
2022-12-16T02:46:21.647Z,97036.34
2022-12-16T02:48:47.839Z,97036.59
2022-12-16T02:51:15.164Z,97032.09
2022-12-16T02:53:41.475Z,97036.59
2022-12-16T02:56:07.676Z,97039.53
2022-12-16T02:58:33.886Z,97028.63
2022-12-16T03:01:00.178Z,97031.53
2022-12-16T03:03:26.487Z,97036.06
2022-12-16T03:05:52.883Z,97032.63
2022-12-16T03:08:19.242Z,97021.41
2022-12-16T03:10:45.495Z,97024.06
2022-12-16T03:13:11.694Z,97022.19
2022-12-16T03:15:37.918Z,97032.06
2022-12-16T03:18:04.110Z,97019.78
2022-12-16T03:20:30.429Z,97018.47
2022-12-16T03:22:56.658Z,97016.84
2022-12-16T03:25:22.892Z,97023.25
2022-12-16T03:27:49.127Z,97025.66
2022-12-16T03:30:15.383Z,97013.91
2022-12-16T03:32:41.564Z,97016.59
2022-12-16T03:35:07.741Z,97024.06
2022-12-16T03:37:33.949Z,97028.31
2022-12-16T03:40:00.141Z,97029.91
2022-12-16T03:42:26.454Z,97021.41
2022-12-16T03:44:52.721Z,97022.69
2022-12-16T03:47:23.660Z,97022.97
2022-12-16T03:49:50.320Z,97024.56
2022-12-16T03:52:16.497Z,97026.69
2022-12-16T03:54:42.727Z,97026.69
2022-12-16T03:57:14.714Z,97024.00
2022-12-16T03:59:41.792Z,97029.88
2022-12-16T04:02:08.156Z,97029.88
2022-12-16T04:04:34.431Z,97036.56
2022-12-16T04:07:00.643Z,97038.13
2022-12-16T04:09:26.933Z,97040.50
2022-12-16T04:11:53.199Z,97040.47
2022-12-16T04:14:19.358Z,97045.78
2022-12-16T04:16:45.576Z,97049.16
2022-12-16T04:19:11.855Z,97051.31
2022-12-16T04:21:38.056Z,97053.44
2022-12-16T04:24:04.431Z,97054.72
2022-12-16T04:26:30.619Z,97051.53
2022-12-16T04:28:56.847Z,97049.44
2022-12-16T04:31:23.101Z,97051.06
2022-12-16T04:33:49.343Z,97054.25
2022-12-16T04:36:15.527Z,97055.09
2022-12-16T04:38:41.782Z,97056.72
2022-12-16T04:41:07.972Z,97057.53
2022-12-16T04:43:34.506Z,97056.47
2022-12-16T04:46:01.077Z,97053.78
2022-12-16T04:48:27.296Z,97058.88
2022-12-16T04:50:53.498Z,97060.47
2022-12-16T04:53:19.709Z,97058.59
2022-12-16T04:55:45.983Z,97053.81
2022-12-16T04:58:12.157Z,97059.16
2022-12-16T05:00:38.507Z,97062.34
2022-12-16T05:03:04.760Z,97060.75
2022-12-16T05:05:31.107Z,97065.53
2022-12-16T05:07:57.558Z,97070.88
2022-12-16T05:10:23.737Z,97073.28
2022-12-16T05:12:49.939Z,97074.88
2022-12-16T05:15:16.111Z,97067.13
2022-12-16T05:17:42.370Z,97074.31
2022-12-16T05:20:08.536Z,97080.44
2022-12-16T05:22:34.853Z,97072.47
2022-12-16T05:25:01.080Z,97073.53
2022-12-16T05:27:27.328Z,97079.91
2022-12-16T05:29:53.609Z,97090.56
2022-12-16T05:32:19.781Z,97096.69
2022-12-16T05:34:46.041Z,97103.88
2022-12-16T05:37:13.243Z,97110.81
2022-12-16T05:39:40.611Z,97108.16
2022-12-16T05:42:07.262Z,97111.34
2022-12-16T05:44:33.502Z,97118.03
2022-12-16T05:46:59.999Z,97116.72
2022-12-16T05:49:29.589Z,97115.66
2022-12-16T05:51:55.899Z,97123.91
2022-12-16T05:54:22.084Z,97133.22
2022-12-16T05:56:48.275Z,97129.50
2022-12-16T05:59:14.537Z,97137.50
2022-12-16T06:01:40.826Z,97128.94
2022-12-16T06:04:07.171Z,97130.81
2022-12-16T06:06:33.411Z,97135.09
2022-12-16T06:08:59.599Z,97140.41
2022-12-16T06:11:25.785Z,97144.94
2022-12-16T06:13:51.985Z,97153.75
2022-12-16T06:16:18.185Z,97151.06
2022-12-16T06:18:44.388Z,97155.59
2022-12-16T06:21:10.687Z,97159.28
2022-12-16T06:23:37.285Z,97155.03
2022-12-16T06:26:03.648Z,97156.09
2022-12-16T06:28:29.847Z,97157.69
2022-12-16T06:30:56.038Z,97163.84
2022-12-16T06:33:22.260Z,97167.53
2022-12-16T06:35:48.440Z,97179.00
2022-12-16T06:38:14.616Z,97182.22
2022-12-16T06:40:41.072Z,97183.56
2022-12-16T06:43:07.260Z,97187.03
2022-12-16T06:45:35.058Z,97187.03
2022-12-16T06:48:01.446Z,97194.00
2022-12-16T06:50:27.664Z,97197.69
2022-12-16T06:52:53.870Z,97191.03
2022-12-16T06:55:20.063Z,97201.69
2022-12-16T06:57:47.382Z,97206.75
2022-12-16T07:00:13.578Z,97206.75
2022-12-16T07:02:39.896Z,97205.94
2022-12-16T07:05:06.709Z,97217.91
2022-12-16T07:07:33.019Z,97214.19
2022-12-16T07:09:59.257Z,97228.56
2022-12-16T07:12:25.485Z,97232.84
2022-12-16T07:14:51.743Z,97236.53
2022-12-16T07:17:20.657Z,97239.22
2022-12-16T07:19:46.839Z,97243.75
2022-12-16T07:22:13.143Z,97252.03
2022-12-16T07:24:39.357Z,97262.16
2022-12-16T07:27:05.600Z,97258.13
2022-12-16T07:29:31.810Z,97268.25
2022-12-16T07:31:58.044Z,97272.75
2022-12-16T07:34:24.243Z,97277.53
2022-12-16T07:36:50.411Z,97281.75
2022-12-16T07:39:16.620Z,97280.34
2022-12-16T07:41:42.852Z,97284.00
2022-12-16T07:44:09.056Z,97293.25
2022-12-16T07:46:35.732Z,97303.13
2022-12-16T07:49:02.079Z,97308.72
2022-12-16T07:51:28.352Z,97312.72
2022-12-16T07:53:54.582Z,97327.09
2022-12-16T07:56:20.782Z,97328.44
2022-12-16T07:58:47.064Z,97335.94
2022-12-16T08:01:13.361Z,97338.66
2022-12-16T08:03:39.911Z,97342.41
2022-12-16T08:06:06.161Z,97344.63
2022-12-16T08:08:32.359Z,97346.78
2022-12-16T08:10:58.618Z,97350.81
2022-12-16T08:13:26.058Z,97353.53
2022-12-16T08:15:52.528Z,97353.03
2022-12-16T08:18:19.163Z,97348.25
2022-12-16T08:20:45.407Z,97357.03
2022-12-16T08:23:11.624Z,97368.50
2022-12-16T08:25:37.929Z,97360.25
2022-12-16T08:28:04.131Z,97367.97
2022-12-16T08:30:30.394Z,97353.09
2022-12-16T08:35:42.950Z,97364.06
2022-12-16T08:38:13.866Z,97364.63
2022-12-16T08:40:40.463Z,97369.69
2022-12-16T08:43:10.961Z,97373.72
2022-12-16T08:45:39.034Z,97374.28
2022-12-16T08:48:05.227Z,97376.94
2022-12-16T08:50:31.440Z,97381.78
2022-12-16T08:52:57.654Z,97381.25
2022-12-16T08:55:27.953Z,97388.75
2022-12-16T08:57:56.106Z,97394.09
2022-12-16T09:00:22.445Z,97397.38
2022-12-16T09:02:48.883Z,97392.41
2022-12-16T09:05:15.381Z,97400.97
2022-12-16T09:07:41.582Z,97404.22
2022-12-16T09:10:07.792Z,97405.63
2022-12-16T09:12:35.008Z,97404.97
2022-12-16T09:15:01.250Z,97410.06
2022-12-16T09:17:27.437Z,97405.31
2022-12-16T09:19:54.047Z,97419.50
2022-12-16T09:22:21.574Z,97425.16
2022-12-16T09:24:47.752Z,97421.44
2022-12-16T09:27:14.064Z,97426.31
2022-12-16T09:29:43.623Z,97429.56
2022-12-16T09:32:11.311Z,97430.91
2022-12-16T09:34:37.503Z,97425.88
2022-12-16T09:37:03.715Z,97435.53
2022-12-16T09:39:29.923Z,97441.69
2022-12-16T09:41:56.255Z,97444.13
2022-12-16T09:44:22.679Z,97447.09
2022-12-16T09:46:48.988Z,97445.50
2022-12-16T09:49:15.288Z,97442.63
2022-12-16T09:51:41.540Z,97444.25
2022-12-16T09:54:07.758Z,97440.81
2022-12-16T09:56:33.958Z,97445.34
2022-12-16T09:59:00.199Z,97440.28
2022-12-16T10:01:26.528Z,97445.41
2022-12-16T10:03:52.931Z,97446.75
2022-12-16T10:06:19.264Z,97444.34
2022-12-16T10:08:45.549Z,97445.19
2022-12-16T10:11:11.771Z,97449.72
2022-12-16T10:13:37.992Z,97450.28
2022-12-16T10:16:04.321Z,97449.25
2022-12-16T10:18:30.583Z,97453.50
2022-12-16T10:20:56.918Z,97444.72
2022-12-16T10:23:23.129Z,97455.97
2022-12-16T10:25:49.455Z,97447.16
2022-12-16T10:28:15.806Z,97443.69
2022-12-16T10:30:42.255Z,97456.00
2022-12-16T10:33:08.550Z,97453.03
2022-12-16T10:35:35.052Z,97446.66
2022-12-16T10:38:01.248Z,97445.59
2022-12-16T10:40:27.537Z,97445.03
2022-12-16T10:42:53.715Z,97450.94
2022-12-16T10:45:21.742Z,97449.03
2022-12-16T10:47:47.944Z,97454.16
2022-12-16T10:50:14.194Z,97455.47
2022-12-16T10:52:40.503Z,97457.34
2022-12-16T10:55:06.720Z,97461.06
2022-12-16T10:57:32.899Z,97457.06
2022-12-16T10:59:59.120Z,97462.13
2022-12-16T11:02:25.519Z,97464.81
2022-12-16T11:04:51.931Z,97468.03
2022-12-16T11:07:21.884Z,97469.63
2022-12-16T11:09:48.102Z,97466.44
2022-12-16T11:12:14.445Z,97475.28
2022-12-16T11:14:44.086Z,97479.53
2022-12-16T11:17:16.753Z,97474.97
2022-12-16T11:19:42.940Z,97476.31
2022-12-16T11:22:09.136Z,97471.75
2022-12-16T11:24:35.336Z,97473.91
2022-12-16T11:27:01.511Z,97479.28
2022-12-16T11:29:27.714Z,97475.53
2022-12-16T11:31:57.930Z,97482.75
2022-12-16T11:34:25.898Z,97476.88
2022-12-16T11:36:52.148Z,97481.69
2022-12-16T11:39:18.888Z,97484.09
2022-12-16T11:41:45.072Z,97484.34
2022-12-16T11:44:11.299Z,97482.72
2022-12-16T11:46:37.557Z,97477.06
2022-12-16T11:49:03.879Z,97480.00
2022-12-16T11:51:30.144Z,97485.63
2022-12-16T11:53:58.549Z,97489.88
2022-12-16T11:56:24.879Z,97486.69
2022-12-16T11:58:51.183Z,97485.31
2022-12-16T12:01:17.365Z,97484.75
2022-12-16T12:03:43.728Z,97489.31
2022-12-16T12:06:10.155Z,97484.50
2022-12-16T12:08:36.444Z,97489.03
2022-12-16T12:11:02.670Z,97479.13
2022-12-16T12:13:28.869Z,97480.72
2022-12-16T12:15:55.206Z,97485.03
2022-12-16T12:18:21.443Z,97486.09
2022-12-16T12:20:47.782Z,97491.72
2022-12-16T12:23:13.958Z,97492.22
2022-12-16T12:25:40.211Z,97491.91
2022-12-16T12:28:06.465Z,97496.34
2022-12-16T12:30:32.774Z,97492.31
2022-12-16T12:32:58.980Z,97501.53
2022-12-16T12:35:25.234Z,97501.03
2022-12-16T12:37:51.453Z,97504.81
2022-12-16T12:40:17.644Z,97502.13
2022-12-16T12:42:48.909Z,97506.94
2022-12-16T12:45:15.646Z,97516.06
2022-12-16T12:47:42.013Z,97504.50
2022-12-16T12:50:08.244Z,97506.09
2022-12-16T12:52:34.882Z,97513.88
2022-12-16T12:55:01.162Z,97512.00
2022-12-16T12:57:27.403Z,97516.56
2022-12-16T12:59:58.573Z,97522.94
2022-12-16T13:02:28.099Z,97517.53
2022-12-16T13:04:54.452Z,97521.88
2022-12-16T13:07:20.995Z,97519.94
2022-12-16T13:09:47.205Z,97533.06
2022-12-16T13:12:13.445Z,97537.75
2022-12-16T13:14:39.782Z,97560.25
2022-12-16T13:17:06.000Z,97558.91
2022-12-16T13:19:32.308Z,97559.59
2022-12-16T13:21:58.503Z,97534.56
2022-12-16T13:24:24.717Z,97520.31
2022-12-16T13:26:50.935Z,97516.81
2022-12-16T13:29:17.147Z,97519.06
2022-12-16T13:31:43.460Z,97518.72
2022-12-16T13:34:09.733Z,97527.31
2022-12-16T13:36:35.984Z,97526.81
2022-12-16T13:39:02.202Z,97531.00
2022-12-16T13:41:28.403Z,97525.16
2022-12-16T13:43:54.689Z,97527.19
2022-12-16T13:46:20.944Z,97526.34
2022-12-16T13:48:47.179Z,97524.81
2022-12-16T13:51:18.943Z,97531.41
2022-12-16T13:53:45.576Z,97542.41
2022-12-16T13:56:11.789Z,97552.28
2022-12-16T13:58:37.990Z,97559.69
2022-12-16T14:01:04.284Z,97559.78
2022-12-16T14:03:30.799Z,97560.16
2022-12-16T14:05:57.269Z,97564.50
2022-12-16T14:08:23.551Z,97575.28
2022-12-16T14:10:49.758Z,97562.41
2022-12-16T14:13:15.965Z,97575.06
2022-12-16T14:15:42.166Z,97581.25
2022-12-16T14:18:08.407Z,97581.28
2022-12-16T14:20:34.730Z,97583.19
2022-12-16T14:23:00.932Z,97588.59
2022-12-16T14:25:28.157Z,97595.59
2022-12-16T14:27:54.485Z,97597.78
2022-12-16T14:30:20.852Z,97597.28
2022-12-16T14:32:47.141Z,97613.13
2022-12-16T14:35:13.359Z,97609.94
2022-12-16T14:37:39.643Z,97621.22
2022-12-16T14:40:06.019Z,97615.31
2022-12-16T14:42:32.197Z,97624.97
2022-12-16T14:44:58.381Z,97622.28
2022-12-16T14:47:24.576Z,97624.97
2022-12-16T14:49:50.739Z,97621.25
2022-12-16T14:52:16.967Z,97623.66
2022-12-16T14:54:43.235Z,97634.91
2022-12-16T14:57:09.462Z,97641.63
2022-12-16T14:59:35.655Z,97644.88
2022-12-16T15:02:02.247Z,97635.75
2022-12-16T15:04:28.700Z,97644.34
2022-12-16T15:06:54.959Z,97656.66
2022-12-16T15:09:21.153Z,97649.16
2022-12-16T15:11:47.456Z,97659.63
2022-12-16T15:14:13.708Z,97669.53
2022-12-16T15:16:39.925Z,97668.97
2022-12-16T15:19:06.512Z,97672.19
2022-12-16T15:21:32.757Z,97668.97
2022-12-16T15:23:58.997Z,97682.09
2022-12-16T15:26:25.384Z,97681.84
2022-12-16T15:28:51.574Z,97685.56
2022-12-16T15:31:17.806Z,97685.28
2022-12-16T15:33:44.287Z,97691.72
2022-12-16T15:36:10.479Z,97693.88
2022-12-16T15:38:36.704Z,97705.41
2022-12-16T15:41:02.934Z,97700.03
2022-12-16T15:43:29.291Z,97704.03
2022-12-16T15:45:55.565Z,97709.91
2022-12-16T15:48:21.803Z,97708.31
2022-12-16T15:50:47.986Z,97713.91
2022-12-16T15:53:14.178Z,97717.13
2022-12-16T15:55:40.523Z,97716.56
2022-12-16T15:58:06.755Z,97715.78
2022-12-16T16:00:32.957Z,97718.72
2022-12-16T16:02:59.325Z,97716.81
2022-12-16T16:05:25.646Z,97722.72
2022-12-16T16:07:51.899Z,97714.13
2022-12-16T16:10:18.273Z,97722.44
2022-12-16T16:12:44.501Z,97721.34
2022-12-16T16:15:12.242Z,97724.28
2022-12-16T16:17:38.436Z,97732.03
2022-12-16T16:20:04.706Z,97733.13
2022-12-16T16:22:30.923Z,97730.94
2022-12-16T16:24:57.145Z,97737.91
2022-12-16T16:27:23.374Z,97737.63
2022-12-16T16:29:49.561Z,97735.97
2022-12-16T16:32:15.747Z,97737.28
2022-12-16T16:34:41.983Z,97742.59
2022-12-16T16:37:08.204Z,97739.59
2022-12-16T16:39:34.568Z,97746.78
2022-12-16T16:42:00.845Z,97759.06
2022-12-16T16:44:27.091Z,97759.53
2022-12-16T16:46:53.489Z,97765.41
2022-12-16T16:49:19.760Z,97762.19
2022-12-16T16:51:45.959Z,97765.69
2022-12-16T16:54:12.209Z,97768.63
2022-12-16T16:56:38.402Z,97769.94
2022-12-16T16:59:04.638Z,97771.00
2022-12-16T17:01:31.136Z,97769.38
2022-12-16T17:03:57.556Z,97774.97
2022-12-16T17:06:23.938Z,97776.56
2022-12-16T17:08:50.167Z,97780.31
2022-12-16T17:11:16.330Z,97776.28
2022-12-16T17:13:42.541Z,97772.78
2022-12-16T17:16:08.776Z,97778.66
2022-12-16T17:18:36.566Z,97784.25
2022-12-16T17:21:03.759Z,97786.63
2022-12-16T17:23:30.303Z,97789.28
2022-12-16T17:25:56.836Z,97793.31
2022-12-16T17:28:23.136Z,97797.84
2022-12-16T17:30:49.559Z,97799.94
2022-12-16T17:33:15.762Z,97813.56
2022-12-16T17:35:42.076Z,97803.13
2022-12-16T17:38:08.279Z,97807.94
2022-12-16T17:40:34.467Z,97815.41
2022-12-16T17:43:00.754Z,97811.94
2022-12-16T17:45:27.017Z,97811.13
2022-12-16T17:47:53.409Z,97815.91
2022-12-16T17:50:19.639Z,97819.66
2022-12-16T17:52:45.868Z,97826.03
2022-12-16T17:55:12.152Z,97828.72
2022-12-16T17:57:38.399Z,97830.84
2022-12-16T18:00:04.594Z,97835.66
2022-12-16T18:02:30.896Z,97831.34
2022-12-16T18:04:57.218Z,97830.31
2022-12-16T18:07:23.416Z,97840.44
2022-12-16T18:09:49.780Z,97834.28
2022-12-16T18:12:16.030Z,97839.63
2022-12-16T18:14:42.242Z,97850.31
2022-12-16T18:17:08.427Z,97847.91
2022-12-16T18:19:34.636Z,97850.00
2022-12-16T18:22:00.791Z,97849.44
2022-12-16T18:24:27.006Z,97845.13
2022-12-16T18:26:53.223Z,97851.72
2022-12-16T18:29:19.456Z,97855.63
2022-12-16T18:31:46.009Z,97855.25
2022-12-16T18:34:12.386Z,97859.91
2022-12-16T18:36:38.622Z,97865.66
2022-12-16T18:39:04.836Z,97868.16
2022-12-16T18:41:31.098Z,97865.38
2022-12-16T18:43:57.345Z,97871.72
2022-12-16T18:46:23.570Z,97866.06
2022-12-16T18:48:50.044Z,97880.75
2022-12-16T18:51:16.333Z,97887.47
2022-12-16T18:53:42.525Z,97878.16
2022-12-16T18:56:08.723Z,97883.00
2022-12-16T18:58:50.707Z,97887.59
2022-12-16T19:01:17.722Z,97883.88
2022-12-16T19:03:44.025Z,97894.28
2022-12-16T19:06:10.308Z,97895.13
2022-12-16T19:08:36.749Z,97893.25
2022-12-16T19:11:03.062Z,97895.38
2022-12-16T19:13:29.281Z,97895.94
2022-12-16T19:15:55.530Z,97903.69
2022-12-16T19:18:21.814Z,97914.94
2022-12-16T19:20:48.377Z,97916.53
2022-12-16T19:23:14.821Z,97918.63
2022-12-16T19:25:41.024Z,97914.38
2022-12-16T19:28:07.369Z,97913.31
2022-12-16T19:30:33.544Z,97921.31
2022-12-16T19:32:59.761Z,97924.81
2022-12-16T19:35:25.955Z,97922.38
2022-12-16T19:37:53.641Z,97927.72
2022-12-16T19:40:20.004Z,97936.31
2022-12-16T19:42:46.215Z,97936.06
2022-12-16T19:45:12.473Z,97940.31
2022-12-16T19:47:38.652Z,97945.13
2022-12-16T19:50:04.989Z,97943.50
2022-12-16T19:52:31.197Z,97956.03
2022-12-16T19:54:57.410Z,97949.31
2022-12-16T19:57:23.664Z,97957.34
2022-12-16T19:59:49.884Z,97957.59
2022-12-16T20:02:16.274Z,97958.38
2022-12-16T20:04:42.640Z,97965.59
2022-12-16T20:07:09.455Z,97971.72
2022-12-16T20:09:35.730Z,97966.94
2022-12-16T20:12:01.970Z,97975.53
2022-12-16T20:14:28.159Z,97969.16
2022-12-16T20:16:54.449Z,97967.28
2022-12-16T20:19:22.920Z,97975.28
2022-12-16T20:21:49.709Z,97978.78
2022-12-16T20:24:19.838Z,97983.28
2022-12-16T20:26:46.069Z,97980.88
2022-12-16T20:29:12.409Z,97982.50
2022-12-16T20:31:38.672Z,97981.44
2022-12-16T20:34:04.939Z,97983.28
2022-12-16T20:36:31.157Z,97987.03
2022-12-16T20:38:57.365Z,97987.84
2022-12-16T20:41:23.880Z,97999.31
2022-12-16T20:43:50.088Z,97995.59
2022-12-16T20:46:16.501Z,97994.78
2022-12-16T20:48:42.743Z,98000.38
2022-12-16T20:51:08.970Z,98015.34
2022-12-16T20:53:35.932Z,98009.22
2022-12-16T20:56:02.600Z,98017.44
2022-12-16T20:58:28.819Z,98018.75
2022-12-16T21:00:56.434Z,98028.63
2022-12-16T21:03:22.777Z,98026.19
2022-12-16T21:05:49.015Z,98030.97
2022-12-16T21:08:15.183Z,98027.72
2022-12-16T21:10:41.426Z,98034.94
2022-12-16T21:13:07.644Z,98035.72
2022-12-16T21:15:33.882Z,98042.94
2022-12-16T21:18:00.126Z,98043.16
2022-12-16T21:20:26.384Z,98043.16
2022-12-16T21:22:52.643Z,98053.31
2022-12-16T21:28:05.624Z,98063.91
2022-12-16T21:30:31.797Z,98065.75
2022-12-16T21:32:58.131Z,98063.56
2022-12-16T21:35:24.426Z,98075.28
2022-12-16T21:37:50.649Z,98067.78
2022-12-16T21:40:17.868Z,98068.81
2022-12-16T21:42:45.593Z,98075.22
2022-12-16T21:45:11.873Z,98072.53
2022-12-16T21:47:38.255Z,98084.28
2022-12-16T21:50:04.441Z,98093.31
2022-12-16T21:52:30.633Z,98092.75
2022-12-16T21:54:56.846Z,98099.13
2022-12-16T21:57:23.155Z,98093.22
2022-12-16T21:59:49.454Z,98084.06
2022-12-16T22:02:15.632Z,98090.63
2022-12-16T22:04:41.863Z,98093.88
2022-12-16T22:07:08.036Z,98093.78
2022-12-16T22:09:35.504Z,98095.88
2022-12-16T22:12:01.853Z,98100.63
2022-12-16T22:14:28.039Z,98104.94
2022-12-16T22:16:54.421Z,98107.59
2022-12-16T22:19:23.079Z,98115.94
2022-12-16T22:21:49.268Z,98110.13
2022-12-16T22:24:15.564Z,98116.28
2022-12-16T22:26:41.778Z,98106.63
2022-12-16T22:29:07.996Z,98105.59
2022-12-16T22:31:34.319Z,98114.19
2022-12-16T22:34:00.842Z,98112.78
2022-12-16T22:36:27.085Z,98115.47
2022-12-16T22:38:56.250Z,98110.38
2022-12-16T22:41:22.708Z,98118.38
2022-12-16T22:43:48.898Z,98118.13
2022-12-16T22:46:15.217Z,98120.78
2022-12-16T22:48:41.497Z,98121.03
2022-12-16T22:51:07.733Z,98127.19
2022-12-16T22:53:33.931Z,98128.56
2022-12-16T22:56:02.066Z,98134.94
2022-12-16T22:58:28.599Z,98131.22
2022-12-16T23:00:56.406Z,98138.19
2022-12-16T23:03:22.749Z,98135.53
2022-12-16T23:05:48.910Z,98145.63
2022-12-16T23:08:15.142Z,98146.06
2022-12-16T23:10:41.409Z,98147.72
2022-12-16T23:13:07.619Z,98158.38
2022-12-16T23:15:33.809Z,98150.13
2022-12-16T23:18:00.142Z,98149.31
2022-12-16T23:20:26.358Z,98165.09
2022-12-16T23:22:52.636Z,98165.31
2022-12-16T23:25:22.425Z,98169.88
2022-12-16T23:27:48.677Z,98163.97
2022-12-16T23:30:14.906Z,98160.47
2022-12-16T23:32:31.304Z,98054.59
2022-12-16T23:32:41.165Z,98165.81
2022-12-16T23:35:07.384Z,98165.81
2022-12-16T23:37:33.641Z,98168.72
2022-12-16T23:39:59.813Z,98170.81
2022-12-16T23:42:26.121Z,98155.28
2022-12-16T23:44:56.329Z,98169.41
2022-12-16T23:47:22.831Z,98168.63
2022-12-16T23:49:49.081Z,98162.47
2022-12-16T23:52:15.327Z,98173.97
2022-12-16T23:54:41.539Z,98171.28
2022-12-16T23:57:07.748Z,98175.56
2022-12-16T23:59:34.051Z,98175.81
